sensor_id;sensor_type;location;lat;lon;timestamp;temperature;humidity
318;DHT22;146;53.448;10.228;2023-01-09T00:01:30;6.60;2.10
318;DHT22;146;53.448;10.228;2023-01-09T00:03:58;6.60;2.50
318;DHT22;146;53.448;10.228;2023-01-09T00:06:25;6.50;2.60
318;DHT22;146;53.448;10.228;2023-01-09T00:08:52;6.50;2.90
318;DHT22;146;53.448;10.228;2023-01-09T00:11:19;6.40;3.20
318;DHT22;146;53.448;10.228;2023-01-09T00:13:46;6.40;3.60
318;DHT22;146;53.448;10.228;2023-01-09T00:16:13;6.40;3.70
318;DHT22;146;53.448;10.228;2023-01-09T00:18:40;6.30;3.60
318;DHT22;146;53.448;10.228;2023-01-09T00:21:09;6.30;3.70
318;DHT22;146;53.448;10.228;2023-01-09T00:23:36;6.30;3.80
318;DHT22;146;53.448;10.228;2023-01-09T00:26:04;6.20;3.80
318;DHT22;146;53.448;10.228;2023-01-09T00:28:32;6.20;4.10
318;DHT22;146;53.448;10.228;2023-01-09T00:31:02;6.10;4.30
318;DHT22;146;53.448;10.228;2023-01-09T00:33:30;6.10;4.50
318;DHT22;146;53.448;10.228;2023-01-09T00:35:58;6.10;5.00
318;DHT22;146;53.448;10.228;2023-01-09T00:38:26;6.20;5.40
318;DHT22;146;53.448;10.228;2023-01-09T00:40:54;6.20;5.70
318;DHT22;146;53.448;10.228;2023-01-09T00:43:24;6.20;5.80
318;DHT22;146;53.448;10.228;2023-01-09T00:45:53;6.30;5.80
318;DHT22;146;53.448;10.228;2023-01-09T00:48:22;6.40;6.00
318;DHT22;146;53.448;10.228;2023-01-09T00:50:51;6.50;5.90
318;DHT22;146;53.448;10.228;2023-01-09T00:53:21;6.50;5.70
318;DHT22;146;53.448;10.228;2023-01-09T00:55:50;6.50;5.40
318;DHT22;146;53.448;10.228;2023-01-09T00:58:17;6.60;5.40
318;DHT22;146;53.448;10.228;2023-01-09T01:00:45;6.70;5.10
318;DHT22;146;53.448;10.228;2023-01-09T01:03:11;6.70;4.60
318;DHT22;146;53.448;10.228;2023-01-09T01:05:38;6.70;4.20
318;DHT22;146;53.448;10.228;2023-01-09T01:08:22;6.60;3.80
318;DHT22;146;53.448;10.228;2023-01-09T01:10:50;6.60;3.30
318;DHT22;146;53.448;10.228;2023-01-09T01:13:17;6.60;3.20
318;DHT22;146;53.448;10.228;2023-01-09T01:15:45;6.50;3.00
318;DHT22;146;53.448;10.228;2023-01-09T01:18:13;6.40;3.00
318;DHT22;146;53.448;10.228;2023-01-09T01:20:41;6.30;3.30
318;DHT22;146;53.448;10.228;2023-01-09T01:23:08;6.30;3.50
318;DHT22;146;53.448;10.228;2023-01-09T01:25:36;6.40;3.70
318;DHT22;146;53.448;10.228;2023-01-09T01:28:04;6.30;3.80
318;DHT22;146;53.448;10.228;2023-01-09T01:30:31;6.40;4.10
318;DHT22;146;53.448;10.228;2023-01-09T01:32:58;6.40;4.10
318;DHT22;146;53.448;10.228;2023-01-09T01:35:28;6.40;4.40
318;DHT22;146;53.448;10.228;2023-01-09T01:37:55;6.30;4.30
318;DHT22;146;53.448;10.228;2023-01-09T01:40:22;6.40;4.60
318;DHT22;146;53.448;10.228;2023-01-09T01:42:52;6.40;4.70
318;DHT22;146;53.448;10.228;2023-01-09T01:45:21;6.40;4.70
318;DHT22;146;53.448;10.228;2023-01-09T01:47:53;6.40;4.80
318;DHT22;146;53.448;10.228;2023-01-09T01:50:27;6.50;4.80
318;DHT22;146;53.448;10.228;2023-01-09T01:52:59;6.50;4.70
318;DHT22;146;53.448;10.228;2023-01-09T01:55:28;6.50;4.40
318;DHT22;146;53.448;10.228;2023-01-09T01:57:59;6.60;4.20
318;DHT22;146;53.448;10.228;2023-01-09T02:00:32;6.60;3.80
318;DHT22;146;53.448;10.228;2023-01-09T02:03:01;6.60;3.80
318;DHT22;146;53.448;10.228;2023-01-09T02:05:28;6.70;3.80
318;DHT22;146;53.448;10.228;2023-01-09T02:07:55;6.70;3.60
318;DHT22;146;53.448;10.228;2023-01-09T02:10:22;6.70;3.20
318;DHT22;146;53.448;10.228;2023-01-09T02:12:50;6.70;2.50
318;DHT22;146;53.448;10.228;2023-01-09T02:15:17;6.70;2.20
318;DHT22;146;53.448;10.228;2023-01-09T02:17:57;6.60;2.00
318;DHT22;146;53.448;10.228;2023-01-09T02:20:35;6.60;2.10
318;DHT22;146;53.448;10.228;2023-01-09T02:23:33;6.60;2.20
318;DHT22;146;53.448;10.228;2023-01-09T02:26:40;6.60;2.20
318;DHT22;146;53.448;10.228;2023-01-09T02:29:33;6.60;2.10
318;DHT22;146;53.448;10.228;2023-01-09T02:32:18;6.60;2.20
318;DHT22;146;53.448;10.228;2023-01-09T02:34:55;6.60;2.20
318;DHT22;146;53.448;10.228;2023-01-09T02:37:30;6.60;2.30
318;DHT22;146;53.448;10.228;2023-01-09T02:40:04;6.60;2.40
318;DHT22;146;53.448;10.228;2023-01-09T02:42:35;6.60;2.30
318;DHT22;146;53.448;10.228;2023-01-09T02:45:04;6.60;2.40
318;DHT22;146;53.448;10.228;2023-01-09T02:47:40;6.60;2.30
318;DHT22;146;53.448;10.228;2023-01-09T02:50:11;6.60;2.50
318;DHT22;146;53.448;10.228;2023-01-09T02:56:01;6.50;2.60
318;DHT22;146;53.448;10.228;2023-01-09T02:58:43;6.50;3.20
318;DHT22;146;53.448;10.228;2023-01-09T03:01:23;6.50;3.70
318;DHT22;146;53.448;10.228;2023-01-09T03:03:58;6.60;3.80
318;DHT22;146;53.448;10.228;2023-01-09T03:06:33;6.70;3.80
318;DHT22;146;53.448;10.228;2023-01-09T03:09:05;6.60;3.60
318;DHT22;146;53.448;10.228;2023-01-09T03:11:39;6.70;3.70
318;DHT22;146;53.448;10.228;2023-01-09T03:14:11;6.70;3.70
318;DHT22;146;53.448;10.228;2023-01-09T03:16:39;6.80;3.20
318;DHT22;146;53.448;10.228;2023-01-09T03:19:13;6.90;2.60
318;DHT22;146;53.448;10.228;2023-01-09T03:21:41;6.80;2.30
318;DHT22;146;53.448;10.228;2023-01-09T03:24:09;6.80;2.20
318;DHT22;146;53.448;10.228;2023-01-09T03:26:36;6.80;2.30
318;DHT22;146;53.448;10.228;2023-01-09T03:29:05;6.70;2.90
318;DHT22;146;53.448;10.228;2023-01-09T03:31:32;6.80;2.80
318;DHT22;146;53.448;10.228;2023-01-09T03:33:59;6.90;2.60
318;DHT22;146;53.448;10.228;2023-01-09T03:36:27;6.80;2.30
318;DHT22;146;53.448;10.228;2023-01-09T03:38:54;6.80;2.40
318;DHT22;146;53.448;10.228;2023-01-09T03:41:21;6.80;2.70
318;DHT22;146;53.448;10.228;2023-01-09T03:43:48;6.90;2.80
318;DHT22;146;53.448;10.228;2023-01-09T03:46:15;6.90;2.50
318;DHT22;146;53.448;10.228;2023-01-09T03:48:42;6.90;2.30
318;DHT22;146;53.448;10.228;2023-01-09T03:51:09;6.90;2.00
318;DHT22;146;53.448;10.228;2023-01-09T03:53:38;6.90;2.00
318;DHT22;146;53.448;10.228;2023-01-09T03:56:05;6.90;2.00
318;DHT22;146;53.448;10.228;2023-01-09T03:58:32;7.00;2.10
318;DHT22;146;53.448;10.228;2023-01-09T04:00:59;7.00;2.00
318;DHT22;146;53.448;10.228;2023-01-09T04:03:27;7.20;2.00
318;DHT22;146;53.448;10.228;2023-01-09T04:05:53;7.30;1.50
318;DHT22;146;53.448;10.228;2023-01-09T04:08:20;7.30;1.20
318;DHT22;146;53.448;10.228;2023-01-09T04:10:49;7.30;1.10
318;DHT22;146;53.448;10.228;2023-01-09T04:13:16;7.40;1.10
318;DHT22;146;53.448;10.228;2023-01-09T04:15:43;7.40;1.00
318;DHT22;146;53.448;10.228;2023-01-09T04:18:10;7.30;1.00
318;DHT22;146;53.448;10.228;2023-01-09T04:20:37;7.40;1.20
318;DHT22;146;53.448;10.228;2023-01-09T04:23:03;7.30;1.60
318;DHT22;146;53.448;10.228;2023-01-09T04:25:30;7.30;2.10
318;DHT22;146;53.448;10.228;2023-01-09T04:27:59;7.30;2.30
318;DHT22;146;53.448;10.228;2023-01-09T04:30:25;7.30;2.60
318;DHT22;146;53.448;10.228;2023-01-09T04:32:52;7.30;2.80
318;DHT22;146;53.448;10.228;2023-01-09T04:35:19;7.20;3.10
318;DHT22;146;53.448;10.228;2023-01-09T04:37:46;7.20;3.60
318;DHT22;146;53.448;10.228;2023-01-09T04:40:14;7.20;3.90
318;DHT22;146;53.448;10.228;2023-01-09T04:42:43;7.10;4.30
318;DHT22;146;53.448;10.228;2023-01-09T04:45:11;7.10;4.70
318;DHT22;146;53.448;10.228;2023-01-09T04:47:40;7.30;4.90
318;DHT22;146;53.448;10.228;2023-01-09T04:50:08;7.30;4.70
318;DHT22;146;53.448;10.228;2023-01-09T04:52:35;7.30;4.60
318;DHT22;146;53.448;10.228;2023-01-09T04:55:02;7.20;4.60
318;DHT22;146;53.448;10.228;2023-01-09T04:57:30;7.20;4.90
318;DHT22;146;53.448;10.228;2023-01-09T04:59:57;7.10;5.10
318;DHT22;146;53.448;10.228;2023-01-09T05:02:25;7.10;5.60
318;DHT22;146;53.448;10.228;2023-01-09T05:04:52;7.10;5.80
318;DHT22;146;53.448;10.228;2023-01-09T05:07:19;7.00;6.10
318;DHT22;146;53.448;10.228;2023-01-09T05:09:46;7.00;6.20
318;DHT22;146;53.448;10.228;2023-01-09T05:12:13;7.00;6.50
318;DHT22;146;53.448;10.228;2023-01-09T05:14:40;7.10;6.70
318;DHT22;146;53.448;10.228;2023-01-09T05:17:07;7.00;6.90
318;DHT22;146;53.448;10.228;2023-01-09T05:19:35;7.10;7.20
318;DHT22;146;53.448;10.228;2023-01-09T05:22:03;7.10;7.20
318;DHT22;146;53.448;10.228;2023-01-09T05:24:30;7.10;7.40
318;DHT22;146;53.448;10.228;2023-01-09T05:26:57;7.20;7.40
318;DHT22;146;53.448;10.228;2023-01-09T05:29:27;7.20;7.40
318;DHT22;146;53.448;10.228;2023-01-09T05:31:54;7.30;7.50
318;DHT22;146;53.448;10.228;2023-01-09T05:34:21;7.20;7.40
318;DHT22;146;53.448;10.228;2023-01-09T05:36:49;7.20;7.50
318;DHT22;146;53.448;10.228;2023-01-09T05:39:16;7.20;7.50
318;DHT22;146;53.448;10.228;2023-01-09T05:41:42;7.30;7.50
318;DHT22;146;53.448;10.228;2023-01-09T05:44:09;7.40;7.50
318;DHT22;146;53.448;10.228;2023-01-09T05:46:36;7.40;7.50
318;DHT22;146;53.448;10.228;2023-01-09T05:49:11;7.50;7.60
318;DHT22;146;53.448;10.228;2023-01-09T05:51:39;7.50;7.60
318;DHT22;146;53.448;10.228;2023-01-09T05:54:07;7.60;7.50
318;DHT22;146;53.448;10.228;2023-01-09T05:56:33;7.60;7.30
318;DHT22;146;53.448;10.228;2023-01-09T05:59:00;7.70;7.40
318;DHT22;146;53.448;10.228;2023-01-09T06:01:27;7.80;7.00
318;DHT22;146;53.448;10.228;2023-01-09T06:03:54;7.90;6.60
318;DHT22;146;53.448;10.228;2023-01-09T06:06:21;7.80;6.30
318;DHT22;146;53.448;10.228;2023-01-09T06:08:48;7.90;6.10
318;DHT22;146;53.448;10.228;2023-01-09T06:11:19;7.80;5.80
318;DHT22;146;53.448;10.228;2023-01-09T06:13:46;7.80;5.40
318;DHT22;146;53.448;10.228;2023-01-09T06:16:13;7.80;5.30
318;DHT22;146;53.448;10.228;2023-01-09T06:18:39;7.80;5.10
318;DHT22;146;53.448;10.228;2023-01-09T06:21:06;7.80;5.00
318;DHT22;146;53.448;10.228;2023-01-09T06:23:33;7.90;4.90
318;DHT22;146;53.448;10.228;2023-01-09T06:26:00;7.90;4.80
318;DHT22;146;53.448;10.228;2023-01-09T06:28:28;8.00;4.60
318;DHT22;146;53.448;10.228;2023-01-09T06:30:55;8.00;4.30
318;DHT22;146;53.448;10.228;2023-01-09T06:33:22;8.00;4.00
318;DHT22;146;53.448;10.228;2023-01-09T06:35:50;8.00;3.50
318;DHT22;146;53.448;10.228;2023-01-09T06:38:17;8.00;3.70
318;DHT22;146;53.448;10.228;2023-01-09T06:40:44;8.10;3.90
318;DHT22;146;53.448;10.228;2023-01-09T06:43:11;8.20;4.00
318;DHT22;146;53.448;10.228;2023-01-09T06:45:40;8.30;3.80
318;DHT22;146;53.448;10.228;2023-01-09T06:48:07;8.30;3.50
318;DHT22;146;53.448;10.228;2023-01-09T06:50:34;8.30;2.90
318;DHT22;146;53.448;10.228;2023-01-09T06:53:01;8.30;2.50
318;DHT22;146;53.448;10.228;2023-01-09T06:55:28;8.30;2.30
318;DHT22;146;53.448;10.228;2023-01-09T06:57:55;8.30;2.00
318;DHT22;146;53.448;10.228;2023-01-09T07:00:22;8.30;1.70
318;DHT22;146;53.448;10.228;2023-01-09T07:02:51;8.40;1.50
318;DHT22;146;53.448;10.228;2023-01-09T07:05:18;8.40;1.30
318;DHT22;146;53.448;10.228;2023-01-09T07:07:44;8.40;1.00
318;DHT22;146;53.448;10.228;2023-01-09T07:10:14;8.40;1.00
318;DHT22;146;53.448;10.228;2023-01-09T07:12:41;8.40;1.00
318;DHT22;146;53.448;10.228;2023-01-09T07:15:08;8.40;1.00
318;DHT22;146;53.448;10.228;2023-01-09T07:17:35;8.40;1.00
318;DHT22;146;53.448;10.228;2023-01-09T07:20:04;8.30;1.00
318;DHT22;146;53.448;10.228;2023-01-09T07:22:31;8.20;1.00
318;DHT22;146;53.448;10.228;2023-01-09T07:24:58;8.20;1.00
318;DHT22;146;53.448;10.228;2023-01-09T07:27:25;8.10;1.00
318;DHT22;146;53.448;10.228;2023-01-09T07:29:52;8.00;1.00
318;DHT22;146;53.448;10.228;2023-01-09T07:32:18;7.90;1.00
318;DHT22;146;53.448;10.228;2023-01-09T07:34:45;7.90;1.00
318;DHT22;146;53.448;10.228;2023-01-09T07:37:14;7.90;1.00
318;DHT22;146;53.448;10.228;2023-01-09T07:39:42;7.80;1.00
318;DHT22;146;53.448;10.228;2023-01-09T07:42:09;7.80;1.00
318;DHT22;146;53.448;10.228;2023-01-09T07:44:35;7.70;1.00
318;DHT22;146;53.448;10.228;2023-01-09T07:47:02;7.70;1.00
318;DHT22;146;53.448;10.228;2023-01-09T07:49:29;7.80;1.00
318;DHT22;146;53.448;10.228;2023-01-09T07:51:56;7.70;1.00
318;DHT22;146;53.448;10.228;2023-01-09T07:54:24;7.70;1.00
318;DHT22;146;53.448;10.228;2023-01-09T07:56:51;7.70;1.00
318;DHT22;146;53.448;10.228;2023-01-09T07:59:18;7.70;1.00
318;DHT22;146;53.448;10.228;2023-01-09T08:01:45;7.70;1.00
318;DHT22;146;53.448;10.228;2023-01-09T08:04:12;7.70;1.00
318;DHT22;146;53.448;10.228;2023-01-09T08:06:38;7.70;1.00
318;DHT22;146;53.448;10.228;2023-01-09T08:09:05;7.80;1.00
318;DHT22;146;53.448;10.228;2023-01-09T08:11:34;7.80;1.00
318;DHT22;146;53.448;10.228;2023-01-09T08:14:00;7.70;1.00
318;DHT22;146;53.448;10.228;2023-01-09T08:16:27;7.70;1.00
318;DHT22;146;53.448;10.228;2023-01-09T08:18:54;7.70;1.00
318;DHT22;146;53.448;10.228;2023-01-09T08:21:21;7.70;1.00
318;DHT22;146;53.448;10.228;2023-01-09T08:23:48;7.70;1.00
318;DHT22;146;53.448;10.228;2023-01-09T08:26:15;7.70;1.10
318;DHT22;146;53.448;10.228;2023-01-09T08:28:44;7.70;1.20
318;DHT22;146;53.448;10.228;2023-01-09T08:31:11;7.80;1.20
318;DHT22;146;53.448;10.228;2023-01-09T08:33:38;7.80;1.00
318;DHT22;146;53.448;10.228;2023-01-09T08:36:05;7.70;1.00
318;DHT22;146;53.448;10.228;2023-01-09T08:38:32;7.70;1.00
318;DHT22;146;53.448;10.228;2023-01-09T08:40:59;7.60;1.00
318;DHT22;146;53.448;10.228;2023-01-09T08:43:48;7.40;1.00
318;DHT22;146;53.448;10.228;2023-01-09T08:46:32;7.40;1.00
318;DHT22;146;53.448;10.228;2023-01-09T08:49:22;7.30;1.00
318;DHT22;146;53.448;10.228;2023-01-09T08:51:59;7.20;1.00
318;DHT22;146;53.448;10.228;2023-01-09T08:54:31;7.20;1.00
318;DHT22;146;53.448;10.228;2023-01-09T08:56:58;7.20;1.00
318;DHT22;146;53.448;10.228;2023-01-09T08:59:39;7.10;1.00
318;DHT22;146;53.448;10.228;2023-01-09T09:02:09;7.10;1.10
318;DHT22;146;53.448;10.228;2023-01-09T09:04:39;7.10;1.50
318;DHT22;146;53.448;10.228;2023-01-09T09:08:13;7.20;1.90
318;DHT22;146;53.448;10.228;2023-01-09T09:41:33;7.20;2.90
318;DHT22;146;53.448;10.228;2023-01-09T09:44:36;7.40;3.10
318;DHT22;146;53.448;10.228;2023-01-09T09:47:32;7.50;3.30
318;DHT22;146;53.448;10.228;2023-01-09T09:50:14;7.50;2.50
318;DHT22;146;53.448;10.228;2023-01-09T09:52:57;7.60;1.80
318;DHT22;146;53.448;10.228;2023-01-09T09:55:31;7.70;1.40
318;DHT22;146;53.448;10.228;2023-01-09T09:58:03;7.80;1.20
318;DHT22;146;53.448;10.228;2023-01-09T10:00:40;7.90;1.00
318;DHT22;146;53.448;10.228;2023-01-09T10:03:16;7.90;1.00
318;DHT22;146;53.448;10.228;2023-01-09T10:05:52;8.00;1.00
318;DHT22;146;53.448;10.228;2023-01-09T10:08:33;8.00;1.00
318;DHT22;146;53.448;10.228;2023-01-09T10:11:12;8.00;1.00
318;DHT22;146;53.448;10.228;2023-01-09T10:13:42;8.00;1.00
318;DHT22;146;53.448;10.228;2023-01-09T10:16:47;8.10;1.00
318;DHT22;146;53.448;10.228;2023-01-09T10:19:32;8.20;1.00
318;DHT22;146;53.448;10.228;2023-01-09T10:22:13;8.10;1.00
318;DHT22;146;53.448;10.228;2023-01-09T10:24:57;8.10;1.00
318;DHT22;146;53.448;10.228;2023-01-09T10:27:34;8.00;1.00
318;DHT22;146;53.448;10.228;2023-01-09T10:30:25;7.80;1.00
318;DHT22;146;53.448;10.228;2023-01-09T10:33:08;7.80;1.00
318;DHT22;146;53.448;10.228;2023-01-09T10:35:58;7.80;1.00
318;DHT22;146;53.448;10.228;2023-01-09T10:38:34;7.70;1.00
318;DHT22;146;53.448;10.228;2023-01-09T10:41:07;7.60;1.00
318;DHT22;146;53.448;10.228;2023-01-09T10:43:46;7.60;1.00
318;DHT22;146;53.448;10.228;2023-01-09T10:46:24;7.60;1.00
318;DHT22;146;53.448;10.228;2023-01-09T10:48:57;7.70;1.00
318;DHT22;146;53.448;10.228;2023-01-09T10:51:34;7.70;1.00
318;DHT22;146;53.448;10.228;2023-01-09T10:54:06;7.60;1.00
318;DHT22;146;53.448;10.228;2023-01-09T10:56:42;7.60;1.00
318;DHT22;146;53.448;10.228;2023-01-09T10:59:14;7.70;1.00
318;DHT22;146;53.448;10.228;2023-01-09T11:01:48;7.80;1.00
318;DHT22;146;53.448;10.228;2023-01-09T11:04:23;7.90;1.00
318;DHT22;146;53.448;10.228;2023-01-09T11:06:57;8.00;1.00
318;DHT22;146;53.448;10.228;2023-01-09T11:09:25;8.10;1.00
318;DHT22;146;53.448;10.228;2023-01-09T11:11:52;8.20;1.00
318;DHT22;146;53.448;10.228;2023-01-09T11:14:23;8.30;1.00
318;DHT22;146;53.448;10.228;2023-01-09T11:16:58;8.20;1.00
318;DHT22;146;53.448;10.228;2023-01-09T11:19:26;8.10;1.00
318;DHT22;146;53.448;10.228;2023-01-09T11:22:05;8.10;1.00
318;DHT22;146;53.448;10.228;2023-01-09T11:24:33;8.10;1.00
318;DHT22;146;53.448;10.228;2023-01-09T11:27:16;8.00;1.00
318;DHT22;146;53.448;10.228;2023-01-09T11:30:12;8.10;1.00
318;DHT22;146;53.448;10.228;2023-01-09T11:32:41;8.10;1.00
318;DHT22;146;53.448;10.228;2023-01-09T11:35:19;8.10;1.00
318;DHT22;146;53.448;10.228;2023-01-09T11:37:58;8.00;1.00
318;DHT22;146;53.448;10.228;2023-01-09T11:40:34;8.10;1.00
318;DHT22;146;53.448;10.228;2023-01-09T11:43:14;8.20;1.00
318;DHT22;146;53.448;10.228;2023-01-09T11:45:46;8.10;1.00
318;DHT22;146;53.448;10.228;2023-01-09T11:48:34;8.20;1.00
318;DHT22;146;53.448;10.228;2023-01-09T11:51:14;8.30;1.00
318;DHT22;146;53.448;10.228;2023-01-09T11:53:52;8.30;1.00
318;DHT22;146;53.448;10.228;2023-01-09T11:56:23;8.40;1.00
318;DHT22;146;53.448;10.228;2023-01-09T11:58:55;8.40;1.00
318;DHT22;146;53.448;10.228;2023-01-09T12:02:13;8.40;1.00
318;DHT22;146;53.448;10.228;2023-01-09T12:04:58;8.50;1.00
318;DHT22;146;53.448;10.228;2023-01-09T12:07:52;8.40;1.00
318;DHT22;146;53.448;10.228;2023-01-09T12:10:36;8.40;1.00
318;DHT22;146;53.448;10.228;2023-01-09T12:13:09;8.60;1.00
318;DHT22;146;53.448;10.228;2023-01-09T12:15:50;8.70;1.00
318;DHT22;146;53.448;10.228;2023-01-09T12:18:35;8.90;1.00
318;DHT22;146;53.448;10.228;2023-01-09T12:21:20;9.00;1.00
318;DHT22;146;53.448;10.228;2023-01-09T12:49:01;9.20;1.00
318;DHT22;146;53.448;10.228;2023-01-09T12:51:36;9.20;1.00
318;DHT22;146;53.448;10.228;2023-01-09T12:54:14;9.20;1.00
318;DHT22;146;53.448;10.228;2023-01-09T13:00:17;9.40;1.00
318;DHT22;146;53.448;10.228;2023-01-09T13:02:53;9.50;1.00
318;DHT22;146;53.448;10.228;2023-01-09T13:05:31;9.60;1.00
318;DHT22;146;53.448;10.228;2023-01-09T13:08:03;9.50;1.00
318;DHT22;146;53.448;10.228;2023-01-09T13:10:46;9.50;1.00
318;DHT22;146;53.448;10.228;2023-01-09T13:13:20;9.40;1.00
318;DHT22;146;53.448;10.228;2023-01-09T13:16:19;9.40;1.00
318;DHT22;146;53.448;10.228;2023-01-09T13:18:58;9.40;1.00
318;DHT22;146;53.448;10.228;2023-01-09T13:35:52;9.50;1.00
318;DHT22;146;53.448;10.228;2023-01-09T13:38:48;9.50;1.00
318;DHT22;146;53.448;10.228;2023-01-09T13:41:20;9.40;1.00
318;DHT22;146;53.448;10.228;2023-01-09T13:44:22;9.40;1.00
318;DHT22;146;53.448;10.228;2023-01-09T13:47:17;9.20;1.00
318;DHT22;146;53.448;10.228;2023-01-09T14:04:39;9.00;1.00
318;DHT22;146;53.448;10.228;2023-01-09T14:32:40;9.00;1.00
318;DHT22;146;53.448;10.228;2023-01-09T14:35:40;9.00;1.00
318;DHT22;146;53.448;10.228;2023-01-09T14:38:26;8.90;1.00
318;DHT22;146;53.448;10.228;2023-01-09T14:41:06;9.00;1.00
318;DHT22;146;53.448;10.228;2023-01-09T14:43:53;8.90;1.00
318;DHT22;146;53.448;10.228;2023-01-09T14:53:30;8.90;1.00
318;DHT22;146;53.448;10.228;2023-01-09T14:55:58;8.80;1.00
318;DHT22;146;53.448;10.228;2023-01-09T14:58:27;8.80;1.00
318;DHT22;146;53.448;10.228;2023-01-09T15:00:57;8.80;1.00
318;DHT22;146;53.448;10.228;2023-01-09T15:03:30;8.80;1.00
318;DHT22;146;53.448;10.228;2023-01-09T15:05:57;8.70;1.00
318;DHT22;146;53.448;10.228;2023-01-09T15:08:29;8.60;1.00
318;DHT22;146;53.448;10.228;2023-01-09T15:11:10;8.50;1.00
318;DHT22;146;53.448;10.228;2023-01-09T15:14:03;8.40;1.00
318;DHT22;146;53.448;10.228;2023-01-09T15:27:18;8.30;1.00
318;DHT22;146;53.448;10.228;2023-01-09T15:30:25;8.30;1.00
318;DHT22;146;53.448;10.228;2023-01-09T15:33:22;8.20;1.00
318;DHT22;146;53.448;10.228;2023-01-09T15:36:30;8.30;1.00
318;DHT22;146;53.448;10.228;2023-01-09T15:39:38;8.30;1.00
318;DHT22;146;53.448;10.228;2023-01-09T15:42:46;8.10;1.00
318;DHT22;146;53.448;10.228;2023-01-09T15:45:45;8.10;1.00
318;DHT22;146;53.448;10.228;2023-01-09T15:48:27;8.10;1.00
318;DHT22;146;53.448;10.228;2023-01-09T15:51:01;8.00;1.00
318;DHT22;146;53.448;10.228;2023-01-09T15:53:45;7.80;1.00
318;DHT22;146;53.448;10.228;2023-01-09T16:04:02;7.80;1.00
318;DHT22;146;53.448;10.228;2023-01-09T16:10:21;7.80;1.00
318;DHT22;146;53.448;10.228;2023-01-09T16:13:01;7.80;1.00
318;DHT22;146;53.448;10.228;2023-01-09T16:15:34;7.90;1.00
318;DHT22;146;53.448;10.228;2023-01-09T16:18:04;7.90;1.00
318;DHT22;146;53.448;10.228;2023-01-09T16:20:45;7.90;1.00
318;DHT22;146;53.448;10.228;2023-01-09T16:23:28;7.80;1.00
318;DHT22;146;53.448;10.228;2023-01-09T16:26:19;7.80;1.00
318;DHT22;146;53.448;10.228;2023-01-09T16:28:52;7.80;1.00
318;DHT22;146;53.448;10.228;2023-01-09T16:31:27;7.70;1.00
318;DHT22;146;53.448;10.228;2023-01-09T16:34:11;7.70;1.00
318;DHT22;146;53.448;10.228;2023-01-09T16:36:41;7.70;1.00
318;DHT22;146;53.448;10.228;2023-01-09T16:39:17;7.70;1.00
318;DHT22;146;53.448;10.228;2023-01-09T16:41:45;7.80;1.00
318;DHT22;146;53.448;10.228;2023-01-09T16:44:30;7.80;1.00
318;DHT22;146;53.448;10.228;2023-01-09T16:46:58;7.80;1.10
318;DHT22;146;53.448;10.228;2023-01-09T16:49:27;7.70;1.10
318;DHT22;146;53.448;10.228;2023-01-09T16:51:59;7.70;1.20
318;DHT22;146;53.448;10.228;2023-01-09T16:54:31;7.70;1.20
318;DHT22;146;53.448;10.228;2023-01-09T16:57:00;7.70;1.40
318;DHT22;146;53.448;10.228;2023-01-09T16:59:38;7.70;1.40
318;DHT22;146;53.448;10.228;2023-01-09T17:02:13;7.70;1.60
318;DHT22;146;53.448;10.228;2023-01-09T17:04:44;7.80;1.90
318;DHT22;146;53.448;10.228;2023-01-09T17:07:35;7.90;1.60
318;DHT22;146;53.448;10.228;2023-01-09T17:10:05;7.90;1.40
318;DHT22;146;53.448;10.228;2023-01-09T17:12:37;8.00;1.00
318;DHT22;146;53.448;10.228;2023-01-09T17:15:10;7.90;1.00
318;DHT22;146;53.448;10.228;2023-01-09T17:17:43;7.90;1.20
318;DHT22;146;53.448;10.228;2023-01-09T17:20:15;8.00;1.10
318;DHT22;146;53.448;10.228;2023-01-09T17:22:54;8.00;1.00
318;DHT22;146;53.448;10.228;2023-01-09T17:25:24;8.00;1.00
318;DHT22;146;53.448;10.228;2023-01-09T17:28:22;8.00;1.00
318;DHT22;146;53.448;10.228;2023-01-09T17:30:59;8.00;1.00
318;DHT22;146;53.448;10.228;2023-01-09T17:33:31;8.10;1.00
318;DHT22;146;53.448;10.228;2023-01-09T17:35:58;8.10;1.00
318;DHT22;146;53.448;10.228;2023-01-09T17:38:32;8.10;1.00
318;DHT22;146;53.448;10.228;2023-01-09T17:41:04;8.10;1.00
318;DHT22;146;53.448;10.228;2023-01-09T17:43:32;8.10;1.00
318;DHT22;146;53.448;10.228;2023-01-09T17:46:04;8.30;1.00
318;DHT22;146;53.448;10.228;2023-01-09T17:48:31;8.20;1.00
318;DHT22;146;53.448;10.228;2023-01-09T17:51:01;8.30;1.00
318;DHT22;146;53.448;10.228;2023-01-09T17:53:28;8.20;1.00
318;DHT22;146;53.448;10.228;2023-01-09T17:55:57;8.20;1.00
318;DHT22;146;53.448;10.228;2023-01-09T17:58:27;8.20;1.00
318;DHT22;146;53.448;10.228;2023-01-09T18:00:55;8.10;1.00
318;DHT22;146;53.448;10.228;2023-01-09T18:03:29;8.00;1.00
318;DHT22;146;53.448;10.228;2023-01-09T18:06:10;8.00;1.00
318;DHT22;146;53.448;10.228;2023-01-09T18:08:40;8.00;1.00
318;DHT22;146;53.448;10.228;2023-01-09T18:11:12;8.10;1.00
318;DHT22;146;53.448;10.228;2023-01-09T18:17:11;8.00;1.00
318;DHT22;146;53.448;10.228;2023-01-09T18:19:42;8.10;1.00
318;DHT22;146;53.448;10.228;2023-01-09T18:48:31;7.40;1.00
318;DHT22;146;53.448;10.228;2023-01-09T18:51:02;7.40;1.00
318;DHT22;146;53.448;10.228;2023-01-09T18:53:29;7.40;1.00
318;DHT22;146;53.448;10.228;2023-01-09T18:55:56;7.40;1.00
318;DHT22;146;53.448;10.228;2023-01-09T18:58:23;7.40;1.10
318;DHT22;146;53.448;10.228;2023-01-09T19:00:50;7.50;1.50
318;DHT22;146;53.448;10.228;2023-01-09T19:03:19;7.50;1.30
318;DHT22;146;53.448;10.228;2023-01-09T19:05:47;7.50;1.60
318;DHT22;146;53.448;10.228;2023-01-09T19:08:14;7.60;1.90
318;DHT22;146;53.448;10.228;2023-01-09T19:10:41;7.60;2.10
318;DHT22;146;53.448;10.228;2023-01-09T19:13:08;7.70;2.20
318;DHT22;146;53.448;10.228;2023-01-09T19:15:35;7.70;2.20
318;DHT22;146;53.448;10.228;2023-01-09T19:18:05;7.80;2.10
318;DHT22;146;53.448;10.228;2023-01-09T19:20:32;7.80;1.90
318;DHT22;146;53.448;10.228;2023-01-09T19:23:00;7.80;1.70
318;DHT22;146;53.448;10.228;2023-01-09T19:25:27;7.90;1.40
318;DHT22;146;53.448;10.228;2023-01-09T19:27:53;7.90;1.20
318;DHT22;146;53.448;10.228;2023-01-09T19:30:20;7.90;1.00
318;DHT22;146;53.448;10.228;2023-01-09T19:32:47;7.80;1.00
318;DHT22;146;53.448;10.228;2023-01-09T19:35:14;7.90;1.00
318;DHT22;146;53.448;10.228;2023-01-09T19:37:42;7.90;1.00
318;DHT22;146;53.448;10.228;2023-01-09T19:40:11;8.00;1.00
318;DHT22;146;53.448;10.228;2023-01-09T19:42:38;7.90;1.00
318;DHT22;146;53.448;10.228;2023-01-09T19:45:06;7.90;1.00
318;DHT22;146;53.448;10.228;2023-01-09T19:47:33;7.90;1.00
318;DHT22;146;53.448;10.228;2023-01-09T19:50:01;7.90;1.00
318;DHT22;146;53.448;10.228;2023-01-09T19:52:28;7.80;1.00
318;DHT22;146;53.448;10.228;2023-01-09T19:54:55;7.70;1.00
318;DHT22;146;53.448;10.228;2023-01-09T19:57:23;7.60;1.00
318;DHT22;146;53.448;10.228;2023-01-09T19:59:50;7.60;1.00
318;DHT22;146;53.448;10.228;2023-01-09T20:02:16;7.60;1.00
318;DHT22;146;53.448;10.228;2023-01-09T20:04:43;7.50;1.00
318;DHT22;146;53.448;10.228;2023-01-09T20:07:11;7.60;1.00
318;DHT22;146;53.448;10.228;2023-01-09T20:09:38;7.50;1.00
318;DHT22;146;53.448;10.228;2023-01-09T20:12:05;7.50;1.00
318;DHT22;146;53.448;10.228;2023-01-09T20:14:33;7.40;1.00
318;DHT22;146;53.448;10.228;2023-01-09T20:17:02;7.50;1.20
318;DHT22;146;53.448;10.228;2023-01-09T20:19:29;7.40;1.30
318;DHT22;146;53.448;10.228;2023-01-09T20:22:00;7.50;1.50
318;DHT22;146;53.448;10.228;2023-01-09T20:24:27;7.50;1.70